sensor_id;sensor_type;location;lat;lon;timestamp;P1;durP1;ratioP1;P2;durP2;ratioP2
12852;SDS011;6495;51.808;7.478;2023-04-27T00:02:41;5.50;;;2.73;;
12852;SDS011;6495;51.808;7.478;2023-04-27T00:05:36;8.57;;;3.00;;
12852;SDS011;6495;51.808;7.478;2023-04-27T00:08:27;4.13;;;2.40;;
12852;SDS011;6495;51.808;7.478;2023-04-27T00:11:17;3.90;;;2.70;;
12852;SDS011;6495;51.808;7.478;2023-04-27T00:14:06;3.90;;;2.63;;
12852;SDS011;6495;51.808;7.478;2023-04-27T00:16:55;6.00;;;2.80;;
12852;SDS011;6495;51.808;7.478;2023-04-27T00:19:43;7.50;;;2.97;;
12852;SDS011;6495;51.808;7.478;2023-04-27T00:22:32;3.83;;;2.63;;
12852;SDS011;6495;51.808;7.478;2023-04-27T00:25:22;2.97;;;2.37;;
12852;SDS011;6495;51.808;7.478;2023-04-27T00:28:12;4.43;;;3.30;;
12852;SDS011;6495;51.808;7.478;2023-04-27T00:31:00;5.43;;;2.27;;
12852;SDS011;6495;51.808;7.478;2023-04-27T00:33:50;3.80;;;2.47;;
12852;SDS011;6495;51.808;7.478;2023-04-27T00:36:38;3.30;;;2.70;;
12852;SDS011;6495;51.808;7.478;2023-04-27T00:39:26;3.97;;;2.67;;
12852;SDS011;6495;51.808;7.478;2023-04-27T00:42:15;4.70;;;2.63;;
12852;SDS011;6495;51.808;7.478;2023-04-27T00:45:16;4.73;;;2.57;;
12852;SDS011;6495;51.808;7.478;2023-04-27T00:48:05;3.87;;;2.43;;
12852;SDS011;6495;51.808;7.478;2023-04-27T00:50:53;6.67;;;2.90;;
12852;SDS011;6495;51.808;7.478;2023-04-27T00:53:42;3.17;;;2.47;;
12852;SDS011;6495;51.808;7.478;2023-04-27T00:56:31;3.63;;;2.43;;
12852;SDS011;6495;51.808;7.478;2023-04-27T00:59:19;6.73;;;2.27;;
12852;SDS011;6495;51.808;7.478;2023-04-27T01:02:09;3.43;;;2.60;;
12852;SDS011;6495;51.808;7.478;2023-04-27T01:04:59;4.87;;;2.47;;
12852;SDS011;6495;51.808;7.478;2023-04-27T01:07:49;5.90;;;2.87;;
12852;SDS011;6495;51.808;7.478;2023-04-27T01:10:39;2.77;;;2.30;;
12852;SDS011;6495;51.808;7.478;2023-04-27T01:13:29;5.63;;;2.73;;
12852;SDS011;6495;51.808;7.478;2023-04-27T01:16:17;4.27;;;2.53;;
12852;SDS011;6495;51.808;7.478;2023-04-27T01:19:08;3.43;;;2.47;;
12852;SDS011;6495;51.808;7.478;2023-04-27T01:21:56;4.23;;;2.43;;
12852;SDS011;6495;51.808;7.478;2023-04-27T01:24:46;6.13;;;2.47;;
12852;SDS011;6495;51.808;7.478;2023-04-27T01:27:34;7.97;;;2.80;;
12852;SDS011;6495;51.808;7.478;2023-04-27T01:30:23;5.97;;;2.37;;
12852;SDS011;6495;51.808;7.478;2023-04-27T01:33:14;3.93;;;2.60;;
12852;SDS011;6495;51.808;7.478;2023-04-27T01:36:09;6.20;;;2.90;;
12852;SDS011;6495;51.808;7.478;2023-04-27T01:38:57;4.60;;;2.83;;
12852;SDS011;6495;51.808;7.478;2023-04-27T01:41:47;5.50;;;2.77;;
12852;SDS011;6495;51.808;7.478;2023-04-27T01:44:36;5.30;;;3.07;;
12852;SDS011;6495;51.808;7.478;2023-04-27T01:47:24;2.93;;;2.33;;
12852;SDS011;6495;51.808;7.478;2023-04-27T01:50:13;3.90;;;2.33;;
12852;SDS011;6495;51.808;7.478;2023-04-27T01:53:02;3.73;;;2.50;;
12852;SDS011;6495;51.808;7.478;2023-04-27T01:55:50;5.33;;;2.53;;
12852;SDS011;6495;51.808;7.478;2023-04-27T01:58:40;6.87;;;2.80;;
12852;SDS011;6495;51.808;7.478;2023-04-27T02:01:28;3.67;;;2.17;;
12852;SDS011;6495;51.808;7.478;2023-04-27T02:04:17;3.80;;;2.47;;
12852;SDS011;6495;51.808;7.478;2023-04-27T02:07:06;2.77;;;2.30;;
12852;SDS011;6495;51.808;7.478;2023-04-27T02:09:55;4.00;;;2.33;;
12852;SDS011;6495;51.808;7.478;2023-04-27T02:12:49;3.60;;;2.70;;
12852;SDS011;6495;51.808;7.478;2023-04-27T02:15:40;3.53;;;2.60;;
12852;SDS011;6495;51.808;7.478;2023-04-27T02:18:28;6.43;;;3.07;;
12852;SDS011;6495;51.808;7.478;2023-04-27T02:21:18;4.43;;;2.67;;
12852;SDS011;6495;51.808;7.478;2023-04-27T02:24:06;7.30;;;3.30;;
12852;SDS011;6495;51.808;7.478;2023-04-27T02:26:56;5.37;;;2.73;;
12852;SDS011;6495;51.808;7.478;2023-04-27T02:29:44;4.63;;;2.73;;
12852;SDS011;6495;51.808;7.478;2023-04-27T02:32:34;5.10;;;2.53;;
12852;SDS011;6495;51.808;7.478;2023-04-27T02:35:23;4.83;;;2.87;;
12852;SDS011;6495;51.808;7.478;2023-04-27T02:38:12;3.90;;;2.50;;
12852;SDS011;6495;51.808;7.478;2023-04-27T02:41:01;5.63;;;2.97;;
12852;SDS011;6495;51.808;7.478;2023-04-27T02:43:52;5.10;;;2.67;;
12852;SDS011;6495;51.808;7.478;2023-04-27T02:46:41;6.77;;;2.57;;
12852;SDS011;6495;51.808;7.478;2023-04-27T02:49:30;4.10;;;2.50;;
12852;SDS011;6495;51.808;7.478;2023-04-27T02:52:19;4.30;;;2.63;;
12852;SDS011;6495;51.808;7.478;2023-04-27T02:55:08;5.17;;;2.80;;
12852;SDS011;6495;51.808;7.478;2023-04-27T02:57:57;4.40;;;2.77;;
12852;SDS011;6495;51.808;7.478;2023-04-27T03:00:45;4.80;;;2.60;;
12852;SDS011;6495;51.808;7.478;2023-04-27T03:03:34;6.23;;;3.37;;
12852;SDS011;6495;51.808;7.478;2023-04-27T03:06:24;5.47;;;3.07;;
12852;SDS011;6495;51.808;7.478;2023-04-27T03:09:13;5.13;;;2.50;;
12852;SDS011;6495;51.808;7.478;2023-04-27T03:12:02;5.90;;;2.33;;
12852;SDS011;6495;51.808;7.478;2023-04-27T03:14:51;2.63;;;2.33;;
12852;SDS011;6495;51.808;7.478;2023-04-27T03:17:39;4.87;;;2.30;;
12852;SDS011;6495;51.808;7.478;2023-04-27T03:20:28;5.77;;;2.43;;
12852;SDS011;6495;51.808;7.478;2023-04-27T03:23:18;2.83;;;2.07;;
12852;SDS011;6495;51.808;7.478;2023-04-27T03:26:06;5.30;;;2.83;;
12852;SDS011;6495;51.808;7.478;2023-04-27T03:28:56;5.17;;;2.50;;
12852;SDS011;6495;51.808;7.478;2023-04-27T03:31:47;3.37;;;2.27;;
12852;SDS011;6495;51.808;7.478;2023-04-27T03:34:35;4.63;;;2.63;;
12852;SDS011;6495;51.808;7.478;2023-04-27T03:37:24;4.37;;;2.70;;
12852;SDS011;6495;51.808;7.478;2023-04-27T03:40:19;4.33;;;2.90;;
12852;SDS011;6495;51.808;7.478;2023-04-27T03:43:07;3.77;;;2.10;;
12852;SDS011;6495;51.808;7.478;2023-04-27T03:45:56;4.03;;;2.67;;
12852;SDS011;6495;51.808;7.478;2023-04-27T03:48:45;4.43;;;2.70;;
12852;SDS011;6495;51.808;7.478;2023-04-27T03:51:33;5.50;;;2.90;;
12852;SDS011;6495;51.808;7.478;2023-04-27T03:54:23;3.80;;;2.93;;
12852;SDS011;6495;51.808;7.478;2023-04-27T03:57:13;4.13;;;3.10;;
12852;SDS011;6495;51.808;7.478;2023-04-27T04:00:08;3.87;;;2.57;;
12852;SDS011;6495;51.808;7.478;2023-04-27T04:02:58;4.10;;;2.30;;
12852;SDS011;6495;51.808;7.478;2023-04-27T04:05:47;9.00;;;2.90;;
12852;SDS011;6495;51.808;7.478;2023-04-27T04:08:35;3.57;;;2.47;;
12852;SDS011;6495;51.808;7.478;2023-04-27T04:11:24;3.50;;;2.63;;
12852;SDS011;6495;51.808;7.478;2023-04-27T04:14:17;4.57;;;2.80;;
12852;SDS011;6495;51.808;7.478;2023-04-27T04:17:08;4.80;;;2.90;;
12852;SDS011;6495;51.808;7.478;2023-04-27T04:19:59;6.50;;;2.67;;
12852;SDS011;6495;51.808;7.478;2023-04-27T04:22:55;4.20;;;2.50;;
12852;SDS011;6495;51.808;7.478;2023-04-27T04:25:45;4.83;;;3.00;;
12852;SDS011;6495;51.808;7.478;2023-04-27T04:28:34;4.40;;;3.33;;
12852;SDS011;6495;51.808;7.478;2023-04-27T04:31:24;8.73;;;2.93;;
12852;SDS011;6495;51.808;7.478;2023-04-27T04:34:13;4.33;;;2.63;;
12852;SDS011;6495;51.808;7.478;2023-04-27T04:37:02;4.17;;;2.60;;
12852;SDS011;6495;51.808;7.478;2023-04-27T04:39:51;4.27;;;2.90;;
12852;SDS011;6495;51.808;7.478;2023-04-27T04:42:39;3.70;;;2.43;;
12852;SDS011;6495;51.808;7.478;2023-04-27T04:45:28;5.80;;;3.23;;
12852;SDS011;6495;51.808;7.478;2023-04-27T04:48:18;4.93;;;2.90;;
12852;SDS011;6495;51.808;7.478;2023-04-27T04:51:07;6.03;;;2.43;;
12852;SDS011;6495;51.808;7.478;2023-04-27T04:53:56;4.50;;;2.70;;
12852;SDS011;6495;51.808;7.478;2023-04-27T04:56:47;4.67;;;2.77;;
12852;SDS011;6495;51.808;7.478;2023-04-27T04:59:35;4.93;;;2.80;;
12852;SDS011;6495;51.808;7.478;2023-04-27T05:02:24;6.30;;;3.27;;
12852;SDS011;6495;51.808;7.478;2023-04-27T05:05:14;4.73;;;2.73;;
12852;SDS011;6495;51.808;7.478;2023-04-27T05:08:03;5.40;;;3.50;;
12852;SDS011;6495;51.808;7.478;2023-04-27T05:10:52;5.97;;;3.40;;
12852;SDS011;6495;51.808;7.478;2023-04-27T05:13:41;6.80;;;3.10;;
12852;SDS011;6495;51.808;7.478;2023-04-27T05:16:29;8.73;;;3.07;;
12852;SDS011;6495;51.808;7.478;2023-04-27T05:19:18;7.23;;;2.90;;
12852;SDS011;6495;51.808;7.478;2023-04-27T05:22:08;6.10;;;3.63;;
12852;SDS011;6495;51.808;7.478;2023-04-27T05:24:57;5.50;;;3.30;;
12852;SDS011;6495;51.808;7.478;2023-04-27T05:27:45;4.07;;;3.00;;
12852;SDS011;6495;51.808;7.478;2023-04-27T05:30:34;6.70;;;3.07;;
12852;SDS011;6495;51.808;7.478;2023-04-27T05:33:23;6.70;;;3.60;;
12852;SDS011;6495;51.808;7.478;2023-04-27T05:36:12;7.13;;;3.63;;
12852;SDS011;6495;51.808;7.478;2023-04-27T05:39:01;8.83;;;3.53;;
12852;SDS011;6495;51.808;7.478;2023-04-27T05:41:50;6.00;;;3.30;;
12852;SDS011;6495;51.808;7.478;2023-04-27T05:44:39;6.73;;;3.60;;
12852;SDS011;6495;51.808;7.478;2023-04-27T05:47:29;6.27;;;3.77;;
12852;SDS011;6495;51.808;7.478;2023-04-27T05:50:17;8.60;;;4.37;;
12852;SDS011;6495;51.808;7.478;2023-04-27T05:53:06;7.50;;;3.70;;
12852;SDS011;6495;51.808;7.478;2023-04-27T05:55:56;8.43;;;4.53;;
12852;SDS011;6495;51.808;7.478;2023-04-27T05:58:46;8.80;;;4.10;;
12852;SDS011;6495;51.808;7.478;2023-04-27T06:01:35;10.17;;;4.83;;
12852;SDS011;6495;51.808;7.478;2023-04-27T06:04:23;8.63;;;4.23;;
12852;SDS011;6495;51.808;7.478;2023-04-27T06:07:13;9.47;;;4.27;;
12852;SDS011;6495;51.808;7.478;2023-04-27T06:10:02;9.73;;;3.53;;
12852;SDS011;6495;51.808;7.478;2023-04-27T06:12:53;8.47;;;3.87;;
12852;SDS011;6495;51.808;7.478;2023-04-27T06:15:42;5.20;;;3.73;;
12852;SDS011;6495;51.808;7.478;2023-04-27T06:18:31;6.13;;;3.43;;
12852;SDS011;6495;51.808;7.478;2023-04-27T06:21:19;8.07;;;3.37;;
12852;SDS011;6495;51.808;7.478;2023-04-27T06:24:08;7.27;;;3.10;;
12852;SDS011;6495;51.808;7.478;2023-04-27T06:26:56;7.70;;;3.17;;
12852;SDS011;6495;51.808;7.478;2023-04-27T06:29:46;4.47;;;2.83;;
12852;SDS011;6495;51.808;7.478;2023-04-27T06:32:35;9.33;;;2.90;;
12852;SDS011;6495;51.808;7.478;2023-04-27T06:35:23;7.57;;;3.03;;
12852;SDS011;6495;51.808;7.478;2023-04-27T06:38:12;5.73;;;2.67;;
12852;SDS011;6495;51.808;7.478;2023-04-27T06:41:00;4.33;;;2.87;;
12852;SDS011;6495;51.808;7.478;2023-04-27T06:43:49;7.20;;;3.07;;
12852;SDS011;6495;51.808;7.478;2023-04-27T06:46:39;5.43;;;2.63;;
12852;SDS011;6495;51.808;7.478;2023-04-27T06:49:28;4.83;;;2.30;;
12852;SDS011;6495;51.808;7.478;2023-04-27T06:52:16;9.20;;;2.50;;
12852;SDS011;6495;51.808;7.478;2023-04-27T06:55:06;3.40;;;2.23;;
12852;SDS011;6495;51.808;7.478;2023-04-27T06:57:55;3.57;;;2.27;;
12852;SDS011;6495;51.808;7.478;2023-04-27T07:00:43;5.27;;;2.57;;
12852;SDS011;6495;51.808;7.478;2023-04-27T07:03:34;3.17;;;2.37;;
12852;SDS011;6495;51.808;7.478;2023-04-27T07:06:23;8.70;;;2.20;;
12852;SDS011;6495;51.808;7.478;2023-04-27T07:09:12;9.13;;;2.10;;
12852;SDS011;6495;51.808;7.478;2023-04-27T07:12:16;4.33;;;2.23;;
12852;SDS011;6495;51.808;7.478;2023-04-27T07:15:05;3.50;;;2.43;;
12852;SDS011;6495;51.808;7.478;2023-04-27T07:17:56;3.73;;;2.30;;
12852;SDS011;6495;51.808;7.478;2023-04-27T07:20:46;7.73;;;2.10;;
12852;SDS011;6495;51.808;7.478;2023-04-27T07:23:34;2.97;;;2.17;;
12852;SDS011;6495;51.808;7.478;2023-04-27T07:26:23;2.73;;;1.77;;
12852;SDS011;6495;51.808;7.478;2023-04-27T07:29:12;3.23;;;2.03;;
12852;SDS011;6495;51.808;7.478;2023-04-27T07:32:13;5.03;;;2.47;;
12852;SDS011;6495;51.808;7.478;2023-04-27T07:35:01;4.13;;;2.40;;
12852;SDS011;6495;51.808;7.478;2023-04-27T07:37:52;4.77;;;2.50;;
12852;SDS011;6495;51.808;7.478;2023-04-27T07:40:42;3.40;;;2.67;;
12852;SDS011;6495;51.808;7.478;2023-04-27T07:43:31;4.73;;;2.37;;
12852;SDS011;6495;51.808;7.478;2023-04-27T07:46:19;5.97;;;2.80;;
12852;SDS011;6495;51.808;7.478;2023-04-27T07:49:08;6.10;;;2.70;;
12852;SDS011;6495;51.808;7.478;2023-04-27T07:51:59;8.10;;;3.03;;
12852;SDS011;6495;51.808;7.478;2023-04-27T07:54:49;8.10;;;3.60;;
12852;SDS011;6495;51.808;7.478;2023-04-27T07:57:38;7.03;;;3.70;;
12852;SDS011;6495;51.808;7.478;2023-04-27T08:00:26;6.03;;;3.03;;
12852;SDS011;6495;51.808;7.478;2023-04-27T08:03:15;4.87;;;3.03;;
12852;SDS011;6495;51.808;7.478;2023-04-27T08:06:04;6.87;;;3.30;;
12852;SDS011;6495;51.808;7.478;2023-04-27T08:08:53;4.53;;;2.80;;
12852;SDS011;6495;51.808;7.478;2023-04-27T08:11:45;7.35;;;2.53;;
12852;SDS011;6495;51.808;7.478;2023-04-27T08:14:34;2.55;;;2.35;;
12852;SDS011;6495;51.808;7.478;2023-04-27T08:17:22;3.30;;;2.55;;
12852;SDS011;6495;51.808;7.478;2023-04-27T08:20:11;7.28;;;2.40;;
12852;SDS011;6495;51.808;7.478;2023-04-27T08:23:00;4.38;;;2.38;;
12852;SDS011;6495;51.808;7.478;2023-04-27T08:25:48;3.20;;;2.42;;
12852;SDS011;6495;51.808;7.478;2023-04-27T08:28:38;4.00;;;2.40;;
12852;SDS011;6495;51.808;7.478;2023-04-27T08:31:27;4.78;;;2.25;;
12852;SDS011;6495;51.808;7.478;2023-04-27T08:34:16;3.40;;;2.30;;
12852;SDS011;6495;51.808;7.478;2023-04-27T08:37:04;3.70;;;2.50;;
12852;SDS011;6495;51.808;7.478;2023-04-27T08:39:54;6.25;;;2.40;;
12852;SDS011;6495;51.808;7.478;2023-04-27T08:42:54;5.32;;;2.40;;
12852;SDS011;6495;51.808;7.478;2023-04-27T08:45:47;3.05;;;2.30;;
12852;SDS011;6495;51.808;7.478;2023-04-27T08:48:37;4.93;;;2.22;;
12852;SDS011;6495;51.808;7.478;2023-04-27T08:51:25;2.97;;;2.40;;
12852;SDS011;6495;51.808;7.478;2023-04-27T08:54:15;6.35;;;2.33;;
12852;SDS011;6495;51.808;7.478;2023-04-27T08:57:07;4.72;;;2.65;;
12852;SDS011;6495;51.808;7.478;2023-04-27T08:59:57;4.60;;;2.67;;
12852;SDS011;6495;51.808;7.478;2023-04-27T09:02:48;3.65;;;2.33;;
12852;SDS011;6495;51.808;7.478;2023-04-27T09:05:37;4.75;;;2.25;;
12852;SDS011;6495;51.808;7.478;2023-04-27T09:08:50;3.00;;;2.20;;
12852;SDS011;6495;51.808;7.478;2023-04-27T09:11:38;3.13;;;2.00;;
12852;SDS011;6495;51.808;7.478;2023-04-27T09:14:27;6.47;;;2.80;;
12852;SDS011;6495;51.808;7.478;2023-04-27T09:17:23;3.15;;;2.05;;
12852;SDS011;6495;51.808;7.478;2023-04-27T09:20:14;6.00;;;2.45;;
12852;SDS011;6495;51.808;7.478;2023-04-27T09:23:04;4.95;;;2.85;;
12852;SDS011;6495;51.808;7.478;2023-04-27T09:25:52;4.30;;;2.50;;
12852;SDS011;6495;51.808;7.478;2023-04-27T09:28:46;2.95;;;2.30;;
12852;SDS011;6495;51.808;7.478;2023-04-27T09:31:36;3.45;;;2.40;;
12852;SDS011;6495;51.808;7.478;2023-04-27T09:34:25;6.50;;;2.78;;
12852;SDS011;6495;51.808;7.478;2023-04-27T09:37:25;2.63;;;2.10;;
12852;SDS011;6495;51.808;7.478;2023-04-27T09:40:15;2.72;;;1.92;;
12852;SDS011;6495;51.808;7.478;2023-04-27T09:43:05;2.53;;;2.33;;
12852;SDS011;6495;51.808;7.478;2023-04-27T09:45:55;7.57;;;2.10;;
12852;SDS011;6495;51.808;7.478;2023-04-27T09:48:44;5.57;;;2.65;;
12852;SDS011;6495;51.808;7.478;2023-04-27T09:51:33;2.67;;;2.38;;
12852;SDS011;6495;51.808;7.478;2023-04-27T09:54:24;2.78;;;2.22;;
12852;SDS011;6495;51.808;7.478;2023-04-27T09:57:19;3.30;;;2.40;;
12852;SDS011;6495;51.808;7.478;2023-04-27T10:00:28;5.53;;;2.55;;
12852;SDS011;6495;51.808;7.478;2023-04-27T10:03:50;4.45;;;2.60;;
12852;SDS011;6495;51.808;7.478;2023-04-27T10:06:59;4.55;;;2.50;;
12852;SDS011;6495;51.808;7.478;2023-04-27T10:09:59;2.80;;;2.10;;
12852;SDS011;6495;51.808;7.478;2023-04-27T10:12:55;2.80;;;2.00;;
12852;SDS011;6495;51.808;7.478;2023-04-27T10:15:44;3.30;;;2.35;;
12852;SDS011;6495;51.808;7.478;2023-04-27T10:18:36;4.32;;;2.45;;
12852;SDS011;6495;51.808;7.478;2023-04-27T10:21:24;3.58;;;2.58;;
12852;SDS011;6495;51.808;7.478;2023-04-27T10:24:13;4.35;;;2.65;;
12852;SDS011;6495;51.808;7.478;2023-04-27T10:27:04;2.50;;;2.13;;
12852;SDS011;6495;51.808;7.478;2023-04-27T10:30:07;3.30;;;2.30;;
12852;SDS011;6495;51.808;7.478;2023-04-27T10:32:58;3.92;;;2.08;;
12852;SDS011;6495;51.808;7.478;2023-04-27T10:35:57;3.03;;;1.90;;
12852;SDS011;6495;51.808;7.478;2023-04-27T10:38:46;2.38;;;2.10;;
12852;SDS011;6495;51.808;7.478;2023-04-27T10:41:50;2.53;;;1.90;;
12852;SDS011;6495;51.808;7.478;2023-04-27T10:44:52;3.55;;;2.40;;
12852;SDS011;6495;51.808;7.478;2023-04-27T10:47:44;3.17;;;2.40;;
12852;SDS011;6495;51.808;7.478;2023-04-27T10:50:33;5.65;;;2.72;;
12852;SDS011;6495;51.808;7.478;2023-04-27T10:53:22;3.30;;;2.78;;
12852;SDS011;6495;51.808;7.478;2023-04-27T10:56:12;4.60;;;2.88;;
12852;SDS011;6495;51.808;7.478;2023-04-27T10:59:01;3.42;;;2.53;;
12852;SDS011;6495;51.808;7.478;2023-04-27T11:01:51;4.00;;;2.88;;
12852;SDS011;6495;51.808;7.478;2023-04-27T11:04:40;4.05;;;2.35;;
12852;SDS011;6495;51.808;7.478;2023-04-27T11:07:29;2.95;;;2.05;;
12852;SDS011;6495;51.808;7.478;2023-04-27T11:10:18;8.48;;;2.63;;
12852;SDS011;6495;51.808;7.478;2023-04-27T11:13:08;3.40;;;1.95;;
12852;SDS011;6495;51.808;7.478;2023-04-27T11:15:58;3.15;;;2.40;;
12852;SDS011;6495;51.808;7.478;2023-04-27T11:18:48;3.42;;;2.40;;
12852;SDS011;6495;51.808;7.478;2023-04-27T11:21:37;4.47;;;2.13;;
12852;SDS011;6495;51.808;7.478;2023-04-27T11:24:26;2.97;;;2.15;;
12852;SDS011;6495;51.808;7.478;2023-04-27T11:27:15;5.13;;;2.58;;
12852;SDS011;6495;51.808;7.478;2023-04-27T11:30:04;5.38;;;2.63;;
12852;SDS011;6495;51.808;7.478;2023-04-27T11:33:06;4.10;;;2.83;;
12852;SDS011;6495;51.808;7.478;2023-04-27T11:35:57;5.53;;;2.35;;
12852;SDS011;6495;51.808;7.478;2023-04-27T11:40:00;5.60;;;2.58;;
12852;SDS011;6495;51.808;7.478;2023-04-27T11:42:23;6.57;;;3.15;;
12852;SDS011;6495;51.808;7.478;2023-04-27T11:45:14;2.80;;;2.45;;
12852;SDS011;6495;51.808;7.478;2023-04-27T11:48:13;4.95;;;2.58;;
12852;SDS011;6495;51.808;7.478;2023-04-27T11:52:37;2.75;;;2.17;;
12852;SDS011;6495;51.808;7.478;2023-04-27T11:55:26;2.55;;;2.35;;
12852;SDS011;6495;51.808;7.478;2023-04-27T11:58:15;3.05;;;2.53;;
12852;SDS011;6495;51.808;7.478;2023-04-27T12:01:04;3.08;;;2.65;;
12852;SDS011;6495;51.808;7.478;2023-04-27T12:03:54;2.65;;;2.10;;
12852;SDS011;6495;51.808;7.478;2023-04-27T12:06:47;3.05;;;2.55;;
12852;SDS011;6495;51.808;7.478;2023-04-27T12:09:37;3.90;;;2.25;;
12852;SDS011;6495;51.808;7.478;2023-04-27T12:12:26;2.65;;;2.42;;
12852;SDS011;6495;51.808;7.478;2023-04-27T12:15:14;3.38;;;2.75;;
12852;SDS011;6495;51.808;7.478;2023-04-27T12:18:05;2.65;;;2.45;;
12852;SDS011;6495;51.808;7.478;2023-04-27T12:20:54;5.95;;;2.70;;
12852;SDS011;6495;51.808;7.478;2023-04-27T12:26:59;2.92;;;2.53;;
12852;SDS011;6495;51.808;7.478;2023-04-27T12:29:49;6.00;;;3.22;;
12852;SDS011;6495;51.808;7.478;2023-04-27T12:32:43;3.13;;;2.80;;
12852;SDS011;6495;51.808;7.478;2023-04-27T12:35:32;3.47;;;2.47;;
12852;SDS011;6495;51.808;7.478;2023-04-27T12:38:21;4.43;;;2.40;;
12852;SDS011;6495;51.808;7.478;2023-04-27T12:41:18;3.92;;;3.10;;
12852;SDS011;6495;51.808;7.478;2023-04-27T12:44:10;4.05;;;2.92;;
12852;SDS011;6495;51.808;7.478;2023-04-27T12:47:00;5.60;;;3.17;;
12852;SDS011;6495;51.808;7.478;2023-04-27T12:49:49;3.22;;;2.75;;
12852;SDS011;6495;51.808;7.478;2023-04-27T12:52:45;3.88;;;3.00;;
12852;SDS011;6495;51.808;7.478;2023-04-27T12:55:36;3.45;;;3.00;;
12852;SDS011;6495;51.808;7.478;2023-04-27T12:58:24;2.97;;;2.50;;
12852;SDS011;6495;51.808;7.478;2023-04-27T13:01:14;5.03;;;3.30;;
12852;SDS011;6495;51.808;7.478;2023-04-27T13:04:05;5.15;;;3.22;;
12852;SDS011;6495;51.808;7.478;2023-04-27T13:06:55;4.53;;;3.03;;
12852;SDS011;6495;51.808;7.478;2023-04-27T13:09:45;5.35;;;3.33;;
12852;SDS011;6495;51.808;7.478;2023-04-27T13:12:35;4.88;;;3.30;;
12852;SDS011;6495;51.808;7.478;2023-04-27T13:15:24;4.50;;;3.33;;
12852;SDS011;6495;51.808;7.478;2023-04-27T13:18:14;3.05;;;2.50;;
12852;SDS011;6495;51.808;7.478;2023-04-27T13:21:03;3.38;;;3.08;;
12852;SDS011;6495;51.808;7.478;2023-04-27T13:23:53;3.45;;;2.72;;
12852;SDS011;6495;51.808;7.478;2023-04-27T13:26:45;4.20;;;3.10;;
12852;SDS011;6495;51.808;7.478;2023-04-27T13:29:34;4.82;;;3.00;;
12852;SDS011;6495;51.808;7.478;2023-04-27T13:32:24;5.70;;;3.30;;
12852;SDS011;6495;51.808;7.478;2023-04-27T13:35:22;4.38;;;3.40;;
12852;SDS011;6495;51.808;7.478;2023-04-27T13:38:11;4.45;;;3.58;;
12852;SDS011;6495;51.808;7.478;2023-04-27T13:41:00;4.82;;;3.53;;
12852;SDS011;6495;51.808;7.478;2023-04-27T13:43:49;3.80;;;3.40;;
12852;SDS011;6495;51.808;7.478;2023-04-27T13:46:38;4.03;;;2.88;;
12852;SDS011;6495;51.808;7.478;2023-04-27T13:49:27;4.13;;;3.00;;
12852;SDS011;6495;51.808;7.478;2023-04-27T13:52:17;3.42;;;2.78;;
12852;SDS011;6495;51.808;7.478;2023-04-27T13:55:07;3.45;;;2.53;;
12852;SDS011;6495;51.808;7.478;2023-04-27T13:57:58;4.88;;;2.45;;
12852;SDS011;6495;51.808;7.478;2023-04-27T14:00:50;3.25;;;2.83;;
12852;SDS011;6495;51.808;7.478;2023-04-27T14:03:42;3.75;;;2.70;;
12852;SDS011;6495;51.808;7.478;2023-04-27T14:06:31;7.55;;;3.25;;
12852;SDS011;6495;51.808;7.478;2023-04-27T14:09:21;3.58;;;2.70;;
12852;SDS011;6495;51.808;7.478;2023-04-27T14:12:12;3.53;;;3.08;;
12852;SDS011;6495;51.808;7.478;2023-04-27T14:15:02;4.72;;;3.05;;
12852;SDS011;6495;51.808;7.478;2023-04-27T14:17:52;4.55;;;3.00;;
12852;SDS011;6495;51.808;7.478;2023-04-27T14:20:40;5.20;;;3.45;;
12852;SDS011;6495;51.808;7.478;2023-04-27T14:23:31;3.63;;;2.95;;
12852;SDS011;6495;51.808;7.478;2023-04-27T14:26:22;5.22;;;3.03;;
12852;SDS011;6495;51.808;7.478;2023-04-27T14:29:10;5.35;;;3.35;;
12852;SDS011;6495;51.808;7.478;2023-04-27T14:32:00;5.63;;;3.47;;
12852;SDS011;6495;51.808;7.478;2023-04-27T14:34:53;4.20;;;2.88;;
12852;SDS011;6495;51.808;7.478;2023-04-27T14:38:06;5.55;;;3.50;;
12852;SDS011;6495;51.808;7.478;2023-04-27T14:40:55;6.30;;;3.22;;
12852;SDS011;6495;51.808;7.478;2023-04-27T14:43:52;4.88;;;3.78;;
12852;SDS011;6495;51.808;7.478;2023-04-27T14:49:58;4.65;;;3.30;;
12852;SDS011;6495;51.808;7.478;2023-04-27T14:52:47;3.65;;;3.03;;
12852;SDS011;6495;51.808;7.478;2023-04-27T14:55:36;4.97;;;3.20;;
12852;SDS011;6495;51.808;7.478;2023-04-27T14:58:26;4.25;;;2.70;;
12852;SDS011;6495;51.808;7.478;2023-04-27T15:01:18;4.85;;;3.30;;
12852;SDS011;6495;51.808;7.478;2023-04-27T15:04:09;4.13;;;3.13;;
12852;SDS011;6495;51.808;7.478;2023-04-27T15:06:58;3.72;;;3.17;;
12852;SDS011;6495;51.808;7.478;2023-04-27T15:09:47;5.30;;;3.80;;
12852;SDS011;6495;51.808;7.478;2023-04-27T15:12:37;4.72;;;3.50;;
12852;SDS011;6495;51.808;7.478;2023-04-27T15:15:25;4.65;;;3.72;;
12852;SDS011;6495;51.808;7.478;2023-04-27T15:18:15;8.13;;;3.67;;
12852;SDS011;6495;51.808;7.478;2023-04-27T15:21:05;3.85;;;3.28;;
12852;SDS011;6495;51.808;7.478;2023-04-27T15:23:54;6.03;;;3.95;;
12852;SDS011;6495;51.808;7.478;2023-04-27T15:26:42;4.43;;;3.97;;
12852;SDS011;6495;51.808;7.478;2023-04-27T15:29:35;4.72;;;3.50;;
12852;SDS011;6495;51.808;7.478;2023-04-27T15:32:24;4.15;;;3.38;;
12852;SDS011;6495;51.808;7.478;2023-04-27T15:35:17;6.43;;;3.25;;
12852;SDS011;6495;51.808;7.478;2023-04-27T15:38:06;5.10;;;3.33;;
12852;SDS011;6495;51.808;7.478;2023-04-27T15:40:56;5.15;;;3.58;;
12852;SDS011;6495;51.808;7.478;2023-04-27T15:43:45;4.53;;;3.75;;
12852;SDS011;6495;51.808;7.478;2023-04-27T15:46:34;7.07;;;4.07;;
12852;SDS011;6495;51.808;7.478;2023-04-27T15:49:22;4.97;;;4.22;;
12852;SDS011;6495;51.808;7.478;2023-04-27T15:52:12;5.35;;;4.10;;
12852;SDS011;6495;51.808;7.478;2023-04-27T15:55:01;6.28;;;3.63;;
12852;SDS011;6495;51.808;7.478;2023-04-27T15:57:51;8.00;;;3.88;;
12852;SDS011;6495;51.808;7.478;2023-04-27T16:00:41;6.53;;;3.80;;
12852;SDS011;6495;51.808;7.478;2023-04-27T16:03:30;7.75;;;4.18;;
12852;SDS011;6495;51.808;7.478;2023-04-27T16:06:20;5.03;;;3.75;;
12852;SDS011;6495;51.808;7.478;2023-04-27T16:09:10;4.78;;;3.92;;
12852;SDS011;6495;51.808;7.478;2023-04-27T16:12:00;8.05;;;3.90;;
12852;SDS011;6495;51.808;7.478;2023-04-27T16:14:49;5.45;;;4.07;;
12852;SDS011;6495;51.808;7.478;2023-04-27T16:17:42;6.35;;;3.50;;
12852;SDS011;6495;51.808;7.478;2023-04-27T16:20:31;6.28;;;4.45;;
12852;SDS011;6495;51.808;7.478;2023-04-27T16:23:22;5.18;;;3.70;;
12852;SDS011;6495;51.808;7.478;2023-04-27T16:26:13;9.00;;;4.25;;
12852;SDS011;6495;51.808;7.478;2023-04-27T16:29:02;6.13;;;3.80;;
12852;SDS011;6495;51.808;7.478;2023-04-27T16:31:51;5.70;;;3.90;;
12852;SDS011;6495;51.808;7.478;2023-04-27T16:34:40;7.35;;;3.38;;
12852;SDS011;6495;51.808;7.478;2023-04-27T16:37:29;5.13;;;3.40;;
12852;SDS011;6495;51.808;7.478;2023-04-27T16:40:19;3.45;;;2.97;;
12852;SDS011;6495;51.808;7.478;2023-04-27T16:43:09;5.75;;;3.67;;
12852;SDS011;6495;51.808;7.478;2023-04-27T16:45:58;7.25;;;3.50;;
12852;SDS011;6495;51.808;7.478;2023-04-27T16:48:47;5.22;;;3.65;;
12852;SDS011;6495;51.808;7.478;2023-04-27T16:51:35;6.38;;;3.35;;
12852;SDS011;6495;51.808;7.478;2023-04-27T16:54:24;4.82;;;3.60;;
12852;SDS011;6495;51.808;7.478;2023-04-27T16:57:13;6.20;;;3.30;;
12852;SDS011;6495;51.808;7.478;2023-04-27T17:00:03;4.50;;;3.67;;
12852;SDS011;6495;51.808;7.478;2023-04-27T17:02:55;4.70;;;3.53;;
12852;SDS011;6495;51.808;7.478;2023-04-27T17:05:44;8.75;;;4.05;;
12852;SDS011;6495;51.808;7.478;2023-04-27T17:08:33;9.32;;;4.13;;
12852;SDS011;6495;51.808;7.478;2023-04-27T17:11:22;5.28;;;3.60;;
12852;SDS011;6495;51.808;7.478;2023-04-27T17:14:12;6.05;;;3.45;;
12852;SDS011;6495;51.808;7.478;2023-04-27T17:17:02;5.68;;;3.38;;
12852;SDS011;6495;51.808;7.478;2023-04-27T17:19:51;5.47;;;3.67;;
12852;SDS011;6495;51.808;7.478;2023-04-27T17:22:40;7.22;;;3.45;;
12852;SDS011;6495;51.808;7.478;2023-04-27T17:25:28;4.38;;;3.08;;
12852;SDS011;6495;51.808;7.478;2023-04-27T17:28:17;5.47;;;3.63;;
12852;SDS011;6495;51.808;7.478;2023-04-27T17:31:07;5.55;;;3.10;;